WetterOnline ( http://www.wetteronline.de )

Wetter aktuell Freudenstadt (in 700m)

Aktuelles Wetter: Freudenstadt (801m)

6-stündlich | Neueste Meldungen
Ortszeit Temperatur Wetter
Mo, 28.05. 8:00 17.9° C fast wolkenlos
Mo, 28.05. 2:00 14.4° C wolkig
So, 27.05. 20:00 19.2° C bedeckt
So, 27.05. 14:00 22.4° C wolkig
So, 27.05. 8:00 16.8° C wolkig
So, 27.05. 2:00 15.3° C bedeckt
Sa, 26.05. 20:00 19.6° C leicht bewölkt
Sa, 26.05. 14:00 23.0° C wolkenlos
Ortszeit Temperatur Wetter
Mo, 28.05. 11:00 21.5° C leicht bewölkt
Mo, 28.05. 10:50 21.5° C leicht bewölkt
Mo, 28.05. 10:40 21.1° C wolkenlos
Mo, 28.05. 10:30 21.3° C leicht bewölkt
Mo, 28.05. 10:20 21.3° C leicht bewölkt
Mo, 28.05. 10:10 21.1° C wolkig
Mo, 28.05. 10:00 20.3° C leicht bewölkt
Mo, 28.05. 9:30 19.9° C wolkig
Mo, 28.05. 9:00 19.4° C fast wolkenlos
Mo, 28.05. 8:30 18.6° C fast wolkenlos
Mo, 28.05. 8:00 17.9° C fast wolkenlos
Ortszeit Relative Feuchte Sichtweite
Mo, 28.05. 8:00 74% 30 km
Mo, 28.05. 2:00 96% 25 km
So, 27.05. 20:00 87% 23 km
So, 27.05. 14:00 52% 50 km
So, 27.05. 8:00 81% 40 km
So, 27.05. 2:00 89% 28 km
Sa, 26.05. 20:00 83% 40 km
Sa, 26.05. 14:00 45% 45 km
Ortszeit Relative Feuchte Sichtweite
Mo, 28.05. 11:00 64% 27 km
Mo, 28.05. 10:50 64% -
Mo, 28.05. 10:40 64% -
Mo, 28.05. 10:30 64% 40 km
Mo, 28.05. 10:20 64% -
Mo, 28.05. 10:10 65% -
Mo, 28.05. 10:00 65% 30 km
Mo, 28.05. 9:30 69% 30 km
Mo, 28.05. 9:00 71% 30 km
Mo, 28.05. 8:30 75% 30 km
Mo, 28.05. 8:00 74% 30 km
Ortszeit Niederschlagsmenge Niederschlagsart
Mo, 28.05. 8:00 0.1 l/m2 in 12 Std. Regen
Mo, 28.05. 2:00 0.0 l/m2 in 6 Std. -
So, 27.05. 20:00 2 l/m2 in 12 Std. Regen
So, 27.05. 14:00 0.1 l/m2 in 6 Std. Regen
So, 27.05. 8:00 0.0 l/m2 in 12 Std. -
So, 27.05. 2:00 0.0 l/m2 in 6 Std. -
Sa, 26.05. 20:00 5 l/m2 in 12 Std. Regenschauer
Sa, 26.05. 14:00 0.0 l/m2 in 6 Std. -
Ortszeit Niederschlagsmenge Niederschlagsart
Mo, 28.05. 11:00 0.0 l/m2 in 1 Std. -
Mo, 28.05. 10:50 keine Meldung -
Mo, 28.05. 10:40 keine Meldung -
Mo, 28.05. 10:30 0.0 l/m2 in 1 Std. -
Mo, 28.05. 10:20 keine Meldung -
Mo, 28.05. 10:10 keine Meldung -
Mo, 28.05. 10:00 0.0 l/m2 in 1 Std. -
Mo, 28.05. 9:30 0.0 l/m2 in 1 Std. -
Mo, 28.05. 9:00 0.0 l/m2 in 1 Std. -
Mo, 28.05. 8:30 0.0 l/m2 in 1 Std. -
Mo, 28.05. 8:00 0.0 l/m2 in 1 Std. Regen
Ortszeit Stärke Spitze Richtung
km/h Bft. km/h Grad Sektor
Mo, 28.05. 8:00 7 2 25 350° N
Mo, 28.05. 2:00 4 1 11 10° N
So, 27.05. 20:00 7 2 32 60° NO
So, 27.05. 14:00 7 2 25 270° W
So, 27.05. 8:00 2 1 17 240° SW
So, 27.05. 2:00 11 2 15 160° S
Sa, 26.05. 20:00 4 1 22 20° N
Sa, 26.05. 14:00 11 2 25 100° O
Ortszeit Stärke Spitze Richtung
km/h Bft. km/h Grad Sektor
Mo, 28.05. 11:00 17 3 24 70° O
Mo, 28.05. 10:50 17 3 - 70° O
Mo, 28.05. 10:40 13 3 - 80° O
Mo, 28.05. 10:30 13 3 22 80° O
Mo, 28.05. 10:20 13 3 - 80° O
Mo, 28.05. 10:10 13 3 - 80° O
Mo, 28.05. 10:00 13 3 20 80° O
Mo, 28.05. 9:30 13 3 20 90° O
Mo, 28.05. 9:00 11 2 18 80° O
Mo, 28.05. 8:30 7 2 11 50° NO
Mo, 28.05. 8:00 7 2 14 350° N
Ortszeit Untergrenze Bedeckung Gattung
total tief tief mittel hoch
Mo, 28.05. 8:00 7800 m 2/8 0/8 - - -
Mo, 28.05. 2:00 9000 m 8/8 0/8 - - -
So, 27.05. 20:00 2700 m 8/8 8/8 - - -
So, 27.05. 14:00 1500 m 7/8 4/8 - - -
So, 27.05. 8:00 8100 m 7/8 0/8 - - -
So, 27.05. 2:00 5700 m 8/8 8/8 - - -
Sa, 26.05. 20:00 6900 m 4/8 4/8 - - -
Sa, 26.05. 14:00 - 0/8 0/8 - - -
Ortszeit Bedeckungsgrad in Achtel und Wolkenuntergrenze
Mo, 28.05. 11:00 3(9000m)
Mo, 28.05. 10:50 3(9000m)
Mo, 28.05. 10:40 keine Wolken
Mo, 28.05. 10:30 4(9000m)
Mo, 28.05. 10:20 4(9000m)
Mo, 28.05. 10:10 7(9000m)
Mo, 28.05. 10:00 8(9000m)
Mo, 28.05. 9:30 7(8700m) 7(9000m)
Mo, 28.05. 9:00 2(9000m)
Mo, 28.05. 8:30 1(8700m)
Mo, 28.05. 8:00 2(7800m)
Ortszeit Stationsdruck (hPa) Tendenz (hPa in 3 Std.)
Mo, 28.05. 8:00 926 0,0
Mo, 28.05. 2:00 926 - 0,7
So, 27.05. 20:00 926 - 0,4
So, 27.05. 14:00 928 - 0,9
So, 27.05. 8:00 928 + 0,2
So, 27.05. 2:00 929 - 0,9
Sa, 26.05. 20:00 929 - 0,3
Sa, 26.05. 14:00 929 + 0,5
Ortszeit Stationsdruck (hPa) Tendenz (hPa in 3 Std.)
Mo, 28.05. 11:00 926 + 0,1
Mo, 28.05. 10:50 926 keine Meldung
Mo, 28.05. 10:40 926 keine Meldung
Mo, 28.05. 10:30 926 + 0,3
Mo, 28.05. 10:20 926 keine Meldung
Mo, 28.05. 10:10 926 keine Meldung
Mo, 28.05. 10:00 927 + 0,6
Mo, 28.05. 9:30 927 + 0,9
Mo, 28.05. 9:00 927 + 0,9
Mo, 28.05. 8:30 926 + 0,5
Mo, 28.05. 8:00 926 0,0
Ortszeit Schneehöhe (cm)
Mo, 28.05. 8:00 -
Mo, 28.05. 2:00 -
So, 27.05. 20:00 -
So, 27.05. 14:00 -
So, 27.05. 8:00 -
So, 27.05. 2:00 -
Sa, 26.05. 20:00 -
Sa, 26.05. 14:00 -
Ortszeit Schneehöhe (cm)
Mo, 28.05. 11:00 -
Mo, 28.05. 10:50 -
Mo, 28.05. 10:40 -
Mo, 28.05. 10:30 -
Mo, 28.05. 10:20 -
Mo, 28.05. 10:10 -
Mo, 28.05. 10:00 -
Mo, 28.05. 9:30 -
Mo, 28.05. 9:00 -
Mo, 28.05. 8:30 -
Mo, 28.05. 8:00 -
Link zu dieser Seite / Seite empfehlen

Das Wetter in ...